sensor_id;sensor_type;location;lat;lon;timestamp;P1;durP1;ratioP1;P2;durP2;ratioP2
42146;SDS011;27815;43.410;11.852;2022-07-15T00:01:20;5.28;;;2.05;;
42146;SDS011;27815;43.410;11.852;2022-07-15T00:05:23;3.00;;;1.50;;
42146;SDS011;27815;43.410;11.852;2022-07-15T00:09:26;3.72;;;1.77;;
42146;SDS011;27815;43.410;11.852;2022-07-15T00:13:47;4.05;;;1.90;;
42146;SDS011;27815;43.410;11.852;2022-07-15T00:17:50;3.05;;;1.95;;
42146;SDS011;27815;43.410;11.852;2022-07-15T00:21:54;5.72;;;2.15;;
42146;SDS011;27815;43.410;11.852;2022-07-15T00:25:57;7.65;;;1.90;;
42146;SDS011;27815;43.410;11.852;2022-07-15T00:29:59;3.85;;;2.08;;
42146;SDS011;27815;43.410;11.852;2022-07-15T00:34:02;4.00;;;1.98;;
42146;SDS011;27815;43.410;11.852;2022-07-15T00:38:06;4.10;;;2.10;;
42146;SDS011;27815;43.410;11.852;2022-07-15T00:42:16;4.18;;;2.25;;
42146;SDS011;27815;43.410;11.852;2022-07-15T00:46:37;5.65;;;2.45;;
42146;SDS011;27815;43.410;11.852;2022-07-15T00:50:41;3.70;;;2.10;;
42146;SDS011;27815;43.410;11.852;2022-07-15T00:54:45;3.75;;;2.10;;
42146;SDS011;27815;43.410;11.852;2022-07-15T00:58:51;4.70;;;1.92;;
42146;SDS011;27815;43.410;11.852;2022-07-15T01:02:55;3.60;;;2.33;;
42146;SDS011;27815;43.410;11.852;2022-07-15T01:07:01;4.37;;;2.30;;
42146;SDS011;27815;43.410;11.852;2022-07-15T01:11:04;3.28;;;2.00;;
42146;SDS011;27815;43.410;11.852;2022-07-15T01:15:08;4.60;;;2.40;;
42146;SDS011;27815;43.410;11.852;2022-07-15T01:19:12;4.18;;;2.33;;
42146;SDS011;27815;43.410;11.852;2022-07-15T01:23:18;8.13;;;2.40;;
42146;SDS011;27815;43.410;11.852;2022-07-15T01:27:28;7.05;;;3.10;;
42146;SDS011;27815;43.410;11.852;2022-07-15T01:31:31;7.82;;;2.90;;
42146;SDS011;27815;43.410;11.852;2022-07-15T01:35:36;6.80;;;2.90;;
42146;SDS011;27815;43.410;11.852;2022-07-15T01:39:40;6.18;;;2.42;;
42146;SDS011;27815;43.410;11.852;2022-07-15T01:43:44;4.68;;;2.40;;
42146;SDS011;27815;43.410;11.852;2022-07-15T01:47:48;5.00;;;2.58;;
42146;SDS011;27815;43.410;11.852;2022-07-15T01:52:14;4.93;;;2.47;;
42146;SDS011;27815;43.410;11.852;2022-07-15T01:56:19;4.65;;;2.13;;
42146;SDS011;27815;43.410;11.852;2022-07-15T02:00:22;5.43;;;2.80;;
42146;SDS011;27815;43.410;11.852;2022-07-15T02:04:26;3.78;;;2.15;;
42146;SDS011;27815;43.410;11.852;2022-07-15T02:08:30;5.40;;;2.50;;
42146;SDS011;27815;43.410;11.852;2022-07-15T02:12:33;4.93;;;2.60;;
42146;SDS011;27815;43.410;11.852;2022-07-15T02:16:36;5.65;;;2.65;;
42146;SDS011;27815;43.410;11.852;2022-07-15T02:20:42;4.05;;;2.50;;
42146;SDS011;27815;43.410;11.852;2022-07-15T02:24:46;3.40;;;1.95;;
42146;SDS011;27815;43.410;11.852;2022-07-15T02:28:54;3.90;;;2.10;;
42146;SDS011;27815;43.410;11.852;2022-07-15T02:33:01;4.50;;;2.45;;
42146;SDS011;27815;43.410;11.852;2022-07-15T02:37:07;4.82;;;2.15;;
42146;SDS011;27815;43.410;11.852;2022-07-15T02:41:11;3.03;;;1.92;;
42146;SDS011;27815;43.410;11.852;2022-07-15T02:45:17;3.38;;;2.08;;
42146;SDS011;27815;43.410;11.852;2022-07-15T02:49:21;3.25;;;2.00;;
42146;SDS011;27815;43.410;11.852;2022-07-15T02:53:26;4.22;;;2.35;;
42146;SDS011;27815;43.410;11.852;2022-07-15T02:57:35;10.18;;;2.50;;
42146;SDS011;27815;43.410;11.852;2022-07-15T03:01:38;4.10;;;2.22;;
42146;SDS011;27815;43.410;11.852;2022-07-15T03:05:42;5.38;;;2.38;;
42146;SDS011;27815;43.410;11.852;2022-07-15T03:09:45;3.70;;;2.30;;
42146;SDS011;27815;43.410;11.852;2022-07-15T03:13:48;3.20;;;2.22;;
42146;SDS011;27815;43.410;11.852;2022-07-15T03:17:51;4.90;;;2.80;;
42146;SDS011;27815;43.410;11.852;2022-07-15T03:21:53;4.35;;;2.38;;
42146;SDS011;27815;43.410;11.852;2022-07-15T03:25:59;5.20;;;3.22;;
42146;SDS011;27815;43.410;11.852;2022-07-15T03:30:03;6.00;;;2.72;;
42146;SDS011;27815;43.410;11.852;2022-07-15T03:34:06;4.40;;;2.75;;
42146;SDS011;27815;43.410;11.852;2022-07-15T03:38:09;4.25;;;2.80;;
42146;SDS011;27815;43.410;11.852;2022-07-15T03:42:12;6.40;;;2.75;;
42146;SDS011;27815;43.410;11.852;2022-07-15T03:46:17;6.28;;;2.97;;
42146;SDS011;27815;43.410;11.852;2022-07-15T03:50:26;4.47;;;2.80;;
42146;SDS011;27815;43.410;11.852;2022-07-15T03:54:30;4.15;;;2.67;;
42146;SDS011;27815;43.410;11.852;2022-07-15T03:58:33;3.92;;;2.60;;
42146;SDS011;27815;43.410;11.852;2022-07-15T04:02:36;4.88;;;2.78;;
42146;SDS011;27815;43.410;11.852;2022-07-15T04:06:46;4.00;;;2.72;;
42146;SDS011;27815;43.410;11.852;2022-07-15T04:10:50;4.00;;;2.78;;
42146;SDS011;27815;43.410;11.852;2022-07-15T04:14:53;6.28;;;3.03;;
42146;SDS011;27815;43.410;11.852;2022-07-15T04:18:56;4.82;;;2.80;;
42146;SDS011;27815;43.410;11.852;2022-07-15T04:22:59;3.53;;;2.70;;
42146;SDS011;27815;43.410;11.852;2022-07-15T04:27:03;3.63;;;2.40;;
42146;SDS011;27815;43.410;11.852;2022-07-15T04:31:06;4.50;;;3.00;;
42146;SDS011;27815;43.410;11.852;2022-07-15T04:35:20;4.35;;;3.00;;
42146;SDS011;27815;43.410;11.852;2022-07-15T04:39:29;5.22;;;2.85;;
42146;SDS011;27815;43.410;11.852;2022-07-15T04:43:33;6.00;;;3.05;;
42146;SDS011;27815;43.410;11.852;2022-07-15T04:47:36;7.95;;;3.67;;
42146;SDS011;27815;43.410;11.852;2022-07-15T04:51:42;4.18;;;2.95;;
42146;SDS011;27815;43.410;11.852;2022-07-15T04:55:46;3.90;;;2.78;;
42146;SDS011;27815;43.410;11.852;2022-07-15T04:59:50;6.63;;;3.05;;
42146;SDS011;27815;43.410;11.852;2022-07-15T05:03:53;4.97;;;2.78;;
42146;SDS011;27815;43.410;11.852;2022-07-15T05:07:57;4.93;;;3.00;;
42146;SDS011;27815;43.410;11.852;2022-07-15T05:12:03;7.28;;;2.92;;
42146;SDS011;27815;43.410;11.852;2022-07-15T05:16:18;5.88;;;3.35;;
42146;SDS011;27815;43.410;11.852;2022-07-15T05:20:21;6.03;;;2.80;;
42146;SDS011;27815;43.410;11.852;2022-07-15T05:24:26;4.63;;;3.38;;
42146;SDS011;27815;43.410;11.852;2022-07-15T05:28:31;5.80;;;3.20;;
42146;SDS011;27815;43.410;11.852;2022-07-15T05:32:34;5.82;;;2.97;;
42146;SDS011;27815;43.410;11.852;2022-07-15T05:36:41;11.48;;;4.20;;
42146;SDS011;27815;43.410;11.852;2022-07-15T05:40:47;5.77;;;2.97;;
42146;SDS011;27815;43.410;11.852;2022-07-15T05:44:51;5.43;;;3.22;;
42146;SDS011;27815;43.410;11.852;2022-07-15T05:48:54;6.63;;;4.28;;
42146;SDS011;27815;43.410;11.852;2022-07-15T05:52:59;7.78;;;4.28;;
42146;SDS011;27815;43.410;11.852;2022-07-15T05:57:03;8.05;;;4.25;;
42146;SDS011;27815;43.410;11.852;2022-07-15T06:01:07;8.13;;;4.47;;
42146;SDS011;27815;43.410;11.852;2022-07-15T06:05:13;6.82;;;3.42;;
42146;SDS011;27815;43.410;11.852;2022-07-15T06:09:22;5.82;;;3.80;;
42146;SDS011;27815;43.410;11.852;2022-07-15T06:13:28;5.60;;;3.65;;
42146;SDS011;27815;43.410;11.852;2022-07-15T06:17:32;7.20;;;3.75;;
42146;SDS011;27815;43.410;11.852;2022-07-15T06:21:36;5.43;;;3.40;;
42146;SDS011;27815;43.410;11.852;2022-07-15T06:25:39;7.22;;;3.00;;
42146;SDS011;27815;43.410;11.852;2022-07-15T06:29:44;5.22;;;3.20;;
42146;SDS011;27815;43.410;11.852;2022-07-15T06:33:48;4.10;;;2.97;;
42146;SDS011;27815;43.410;11.852;2022-07-15T06:37:50;5.00;;;3.03;;
42146;SDS011;27815;43.410;11.852;2022-07-15T06:41:54;5.95;;;3.00;;
42146;SDS011;27815;43.410;11.852;2022-07-15T06:45:58;5.53;;;2.60;;
42146;SDS011;27815;43.410;11.852;2022-07-15T06:50:01;7.85;;;3.10;;
42146;SDS011;27815;43.410;11.852;2022-07-15T06:54:04;4.05;;;2.63;;
42146;SDS011;27815;43.410;11.852;2022-07-15T06:58:09;5.28;;;2.95;;
42146;SDS011;27815;43.410;11.852;2022-07-15T07:02:11;5.15;;;2.97;;
42146;SDS011;27815;43.410;11.852;2022-07-15T07:06:16;4.93;;;2.90;;
42146;SDS011;27815;43.410;11.852;2022-07-15T07:10:19;4.00;;;2.75;;
42146;SDS011;27815;43.410;11.852;2022-07-15T07:14:26;4.90;;;2.78;;
42146;SDS011;27815;43.410;11.852;2022-07-15T07:18:30;5.47;;;2.45;;
42146;SDS011;27815;43.410;11.852;2022-07-15T07:22:33;3.60;;;2.40;;
42146;SDS011;27815;43.410;11.852;2022-07-15T07:26:36;5.13;;;2.60;;
42146;SDS011;27815;43.410;11.852;2022-07-15T07:30:39;4.30;;;3.10;;
42146;SDS011;27815;43.410;11.852;2022-07-15T07:34:42;4.95;;;2.40;;
42146;SDS011;27815;43.410;11.852;2022-07-15T07:38:46;3.40;;;2.20;;
42146;SDS011;27815;43.410;11.852;2022-07-15T07:42:50;4.95;;;2.25;;
42146;SDS011;27815;43.410;11.852;2022-07-15T07:46:53;4.95;;;2.63;;
42146;SDS011;27815;43.410;11.852;2022-07-15T07:50:57;4.93;;;2.30;;
42146;SDS011;27815;43.410;11.852;2022-07-15T07:55:00;6.65;;;2.70;;
42146;SDS011;27815;43.410;11.852;2022-07-15T07:59:03;4.85;;;2.83;;
42146;SDS011;27815;43.410;11.852;2022-07-15T08:03:06;3.63;;;2.22;;
42146;SDS011;27815;43.410;11.852;2022-07-15T08:07:09;4.32;;;2.70;;
42146;SDS011;27815;43.410;11.852;2022-07-15T08:11:13;8.68;;;2.58;;
42146;SDS011;27815;43.410;11.852;2022-07-15T08:15:16;3.90;;;2.30;;
42146;SDS011;27815;43.410;11.852;2022-07-15T08:19:19;5.47;;;2.38;;
42146;SDS011;27815;43.410;11.852;2022-07-15T08:23:22;3.75;;;2.22;;
42146;SDS011;27815;43.410;11.852;2022-07-15T08:27:25;3.70;;;2.40;;
42146;SDS011;27815;43.410;11.852;2022-07-15T08:31:28;3.83;;;2.40;;
42146;SDS011;27815;43.410;11.852;2022-07-15T08:35:32;4.95;;;2.50;;
42146;SDS011;27815;43.410;11.852;2022-07-15T08:39:36;4.03;;;2.25;;
42146;SDS011;27815;43.410;11.852;2022-07-15T08:43:39;5.20;;;2.33;;
42146;SDS011;27815;43.410;11.852;2022-07-15T08:47:43;4.00;;;2.20;;
42146;SDS011;27815;43.410;11.852;2022-07-15T08:51:56;3.55;;;2.10;;
42146;SDS011;27815;43.410;11.852;2022-07-15T08:56:02;3.60;;;2.10;;
42146;SDS011;27815;43.410;11.852;2022-07-15T09:00:05;4.15;;;1.85;;
42146;SDS011;27815;43.410;11.852;2022-07-15T09:04:14;3.25;;;1.83;;
42146;SDS011;27815;43.410;11.852;2022-07-15T09:08:18;3.08;;;1.80;;
42146;SDS011;27815;43.410;11.852;2022-07-15T09:12:21;5.65;;;1.95;;
42146;SDS011;27815;43.410;11.852;2022-07-15T09:16:24;4.97;;;2.05;;
42146;SDS011;27815;43.410;11.852;2022-07-15T09:20:28;5.13;;;1.92;;
42146;SDS011;27815;43.410;11.852;2022-07-15T09:24:31;4.50;;;1.92;;
42146;SDS011;27815;43.410;11.852;2022-07-15T09:28:37;3.28;;;2.10;;
42146;SDS011;27815;43.410;11.852;2022-07-15T09:32:42;3.25;;;1.98;;
42146;SDS011;27815;43.410;11.852;2022-07-15T09:37:03;4.35;;;1.90;;
42146;SDS011;27815;43.410;11.852;2022-07-15T09:45:19;3.13;;;1.80;;
42146;SDS011;27815;43.410;11.852;2022-07-15T09:53:29;5.95;;;1.80;;
42146;SDS011;27815;43.410;11.852;2022-07-15T09:57:35;3.72;;;2.22;;
42146;SDS011;27815;43.410;11.852;2022-07-15T10:01:37;4.03;;;1.90;;
42146;SDS011;27815;43.410;11.852;2022-07-15T10:05:42;3.10;;;1.70;;
42146;SDS011;27815;43.410;11.852;2022-07-15T10:09:47;3.15;;;1.80;;
42146;SDS011;27815;43.410;11.852;2022-07-15T10:18:33;3.80;;;1.75;;
42146;SDS011;27815;43.410;11.852;2022-07-15T10:23:05;2.70;;;1.67;;
42146;SDS011;27815;43.410;11.852;2022-07-15T10:27:20;2.97;;;1.70;;
42146;SDS011;27815;43.410;11.852;2022-07-15T10:31:29;4.97;;;2.15;;
42146;SDS011;27815;43.410;11.852;2022-07-15T10:35:41;2.70;;;1.80;;
42146;SDS011;27815;43.410;11.852;2022-07-15T10:43:52;4.88;;;2.10;;
42146;SDS011;27815;43.410;11.852;2022-07-15T10:52:28;4.00;;;1.90;;
42146;SDS011;27815;43.410;11.852;2022-07-15T10:56:33;4.53;;;1.83;;
42146;SDS011;27815;43.410;11.852;2022-07-15T11:00:43;4.28;;;1.90;;
42146;SDS011;27815;43.410;11.852;2022-07-15T11:04:47;3.85;;;2.00;;
42146;SDS011;27815;43.410;11.852;2022-07-15T11:08:52;3.83;;;2.00;;
42146;SDS011;27815;43.410;11.852;2022-07-15T11:12:58;3.08;;;2.00;;
42146;SDS011;27815;43.410;11.852;2022-07-15T11:17:03;4.82;;;2.42;;
42146;SDS011;27815;43.410;11.852;2022-07-15T11:21:07;3.42;;;1.85;;
42146;SDS011;27815;43.410;11.852;2022-07-15T11:29:40;3.45;;;2.10;;
42146;SDS011;27815;43.410;11.852;2022-07-15T11:33:55;4.78;;;2.00;;
42146;SDS011;27815;43.410;11.852;2022-07-15T11:37:59;3.55;;;1.90;;
42146;SDS011;27815;43.410;11.852;2022-07-15T11:42:03;3.75;;;2.38;;
42146;SDS011;27815;43.410;11.852;2022-07-15T11:46:26;5.30;;;2.17;;
42146;SDS011;27815;43.410;11.852;2022-07-15T11:50:35;3.70;;;1.80;;
42146;SDS011;27815;43.410;11.852;2022-07-15T11:54:40;3.13;;;1.98;;
42146;SDS011;27815;43.410;11.852;2022-07-15T11:58:45;2.75;;;1.80;;
42146;SDS011;27815;43.410;11.852;2022-07-15T12:03:07;4.32;;;2.10;;
42146;SDS011;27815;43.410;11.852;2022-07-15T12:07:11;3.78;;;1.95;;
42146;SDS011;27815;43.410;11.852;2022-07-15T12:11:16;2.80;;;1.83;;
42146;SDS011;27815;43.410;11.852;2022-07-15T12:15:20;3.38;;;2.00;;
42146;SDS011;27815;43.410;11.852;2022-07-15T12:19:24;3.08;;;1.60;;
42146;SDS011;27815;43.410;11.852;2022-07-15T12:23:29;3.38;;;2.30;;
42146;SDS011;27815;43.410;11.852;2022-07-15T12:27:33;5.30;;;2.33;;
42146;SDS011;27815;43.410;11.852;2022-07-15T12:31:40;4.03;;;2.40;;
42146;SDS011;27815;43.410;11.852;2022-07-15T12:35:44;4.05;;;2.30;;
42146;SDS011;27815;43.410;11.852;2022-07-15T12:40:00;5.40;;;2.50;;
42146;SDS011;27815;43.410;11.852;2022-07-15T12:44:07;3.13;;;2.17;;
42146;SDS011;27815;43.410;11.852;2022-07-15T12:48:11;4.07;;;2.20;;
42146;SDS011;27815;43.410;11.852;2022-07-15T12:56:22;4.32;;;2.35;;
42146;SDS011;27815;43.410;11.852;2022-07-15T13:00:25;5.72;;;2.20;;
42146;SDS011;27815;43.410;11.852;2022-07-15T13:04:29;3.20;;;2.10;;
42146;SDS011;27815;43.410;11.852;2022-07-15T13:08:34;3.60;;;2.10;;
42146;SDS011;27815;43.410;11.852;2022-07-15T13:12:39;3.08;;;2.00;;
42146;SDS011;27815;43.410;11.852;2022-07-15T13:16:42;4.10;;;2.08;;
42146;SDS011;27815;43.410;11.852;2022-07-15T13:20:45;3.67;;;2.33;;
42146;SDS011;27815;43.410;11.852;2022-07-15T13:24:48;3.97;;;2.17;;
42146;SDS011;27815;43.410;11.852;2022-07-15T13:28:51;3.22;;;2.17;;
42146;SDS011;27815;43.410;11.852;2022-07-15T13:32:54;3.40;;;2.55;;
42146;SDS011;27815;43.410;11.852;2022-07-15T13:36:57;3.63;;;2.20;;
42146;SDS011;27815;43.410;11.852;2022-07-15T13:41:00;4.57;;;2.03;;
42146;SDS011;27815;43.410;11.852;2022-07-15T13:45:03;4.72;;;2.55;;
42146;SDS011;27815;43.410;11.852;2022-07-15T13:49:07;2.90;;;2.30;;
42146;SDS011;27815;43.410;11.852;2022-07-15T13:53:10;3.80;;;2.38;;
42146;SDS011;27815;43.410;11.852;2022-07-15T13:57:12;3.75;;;2.50;;
42146;SDS011;27815;43.410;11.852;2022-07-15T14:01:15;3.95;;;2.88;;
42146;SDS011;27815;43.410;11.852;2022-07-15T14:05:19;4.15;;;2.50;;
42146;SDS011;27815;43.410;11.852;2022-07-15T14:09:22;3.50;;;2.42;;
42146;SDS011;27815;43.410;11.852;2022-07-15T14:13:25;6.13;;;2.47;;
42146;SDS011;27815;43.410;11.852;2022-07-15T14:17:28;2.78;;;2.08;;
42146;SDS011;27815;43.410;11.852;2022-07-15T14:21:31;3.60;;;2.05;;
42146;SDS011;27815;43.410;11.852;2022-07-15T14:25:42;3.47;;;2.50;;
42146;SDS011;27815;43.410;11.852;2022-07-15T14:29:45;4.05;;;2.10;;
42146;SDS011;27815;43.410;11.852;2022-07-15T14:33:48;5.78;;;2.30;;
42146;SDS011;27815;43.410;11.852;2022-07-15T14:37:51;3.35;;;2.10;;
42146;SDS011;27815;43.410;11.852;2022-07-15T14:41:54;2.88;;;1.90;;
42146;SDS011;27815;43.410;11.852;2022-07-15T14:45:57;3.17;;;1.88;;
42146;SDS011;27815;43.410;11.852;2022-07-15T14:50:00;4.45;;;1.75;;
42146;SDS011;27815;43.410;11.852;2022-07-15T14:54:03;3.67;;;1.63;;
42146;SDS011;27815;43.410;11.852;2022-07-15T14:58:05;2.72;;;1.70;;
42146;SDS011;27815;43.410;11.852;2022-07-15T15:02:08;2.85;;;1.67;;
42146;SDS011;27815;43.410;11.852;2022-07-15T15:06:12;3.30;;;1.55;;
42146;SDS011;27815;43.410;11.852;2022-07-15T15:10:24;2.75;;;1.48;;
42146;SDS011;27815;43.410;11.852;2022-07-15T15:14:27;2.58;;;1.40;;
42146;SDS011;27815;43.410;11.852;2022-07-15T15:18:30;3.53;;;1.40;;
42146;SDS011;27815;43.410;11.852;2022-07-15T15:22:33;3.58;;;1.90;;
42146;SDS011;27815;43.410;11.852;2022-07-15T15:26:37;3.88;;;1.70;;
42146;SDS011;27815;43.410;11.852;2022-07-15T15:30:41;4.68;;;1.70;;
42146;SDS011;27815;43.410;11.852;2022-07-15T15:34:44;2.60;;;1.45;;
42146;SDS011;27815;43.410;11.852;2022-07-15T15:38:47;4.50;;;1.45;;
42146;SDS011;27815;43.410;11.852;2022-07-15T15:42:50;3.05;;;1.88;;
42146;SDS011;27815;43.410;11.852;2022-07-15T15:46:53;3.00;;;1.50;;
42146;SDS011;27815;43.410;11.852;2022-07-15T15:50:56;2.55;;;1.88;;
42146;SDS011;27815;43.410;11.852;2022-07-15T15:55:00;4.45;;;2.22;;
42146;SDS011;27815;43.410;11.852;2022-07-15T15:59:03;7.50;;;2.10;;
42146;SDS011;27815;43.410;11.852;2022-07-15T16:03:08;2.92;;;2.00;;
42146;SDS011;27815;43.410;11.852;2022-07-15T16:07:10;4.53;;;2.30;;
42146;SDS011;27815;43.410;11.852;2022-07-15T16:11:13;5.00;;;2.35;;
42146;SDS011;27815;43.410;11.852;2022-07-15T16:15:16;4.60;;;2.10;;
42146;SDS011;27815;43.410;11.852;2022-07-15T16:19:19;7.72;;;2.55;;
42146;SDS011;27815;43.410;11.852;2022-07-15T16:23:22;5.85;;;2.63;;
42146;SDS011;27815;43.410;11.852;2022-07-15T16:27:25;3.45;;;2.80;;
42146;SDS011;27815;43.410;11.852;2022-07-15T16:31:28;4.15;;;2.80;;
42146;SDS011;27815;43.410;11.852;2022-07-15T16:35:32;4.90;;;2.88;;
42146;SDS011;27815;43.410;11.852;2022-07-15T16:39:36;5.18;;;2.78;;
42146;SDS011;27815;43.410;11.852;2022-07-15T16:43:39;5.50;;;2.60;;
42146;SDS011;27815;43.410;11.852;2022-07-15T16:47:42;5.43;;;2.75;;
42146;SDS011;27815;43.410;11.852;2022-07-15T16:51:45;5.22;;;2.60;;
42146;SDS011;27815;43.410;11.852;2022-07-15T16:55:48;5.07;;;2.30;;
42146;SDS011;27815;43.410;11.852;2022-07-15T16:59:51;3.38;;;2.50;;
42146;SDS011;27815;43.410;11.852;2022-07-15T17:03:54;5.90;;;3.05;;
42146;SDS011;27815;43.410;11.852;2022-07-15T17:07:57;4.45;;;2.35;;
42146;SDS011;27815;43.410;11.852;2022-07-15T17:11:59;4.88;;;2.35;;
42146;SDS011;27815;43.410;11.852;2022-07-15T17:16:02;4.13;;;2.58;;
42146;SDS011;27815;43.410;11.852;2022-07-15T17:20:06;3.45;;;2.28;;
42146;SDS011;27815;43.410;11.852;2022-07-15T17:24:09;3.72;;;2.10;;
42146;SDS011;27815;43.410;11.852;2022-07-15T17:28:12;3.42;;;2.38;;
42146;SDS011;27815;43.410;11.852;2022-07-15T17:32:15;5.60;;;2.30;;
42146;SDS011;27815;43.410;11.852;2022-07-15T17:36:19;4.85;;;1.75;;
42146;SDS011;27815;43.410;11.852;2022-07-15T17:40:24;5.38;;;1.88;;
42146;SDS011;27815;43.410;11.852;2022-07-15T17:44:27;4.47;;;1.90;;
42146;SDS011;27815;43.410;11.852;2022-07-15T17:48:29;4.65;;;2.00;;
42146;SDS011;27815;43.410;11.852;2022-07-15T17:52:32;4.75;;;1.70;;
42146;SDS011;27815;43.410;11.852;2022-07-15T17:56:35;3.67;;;2.30;;
42146;SDS011;27815;43.410;11.852;2022-07-15T18:00:38;4.15;;;1.95;;
42146;SDS011;27815;43.410;11.852;2022-07-15T18:04:42;5.20;;;1.80;;
42146;SDS011;27815;43.410;11.852;2022-07-15T18:08:45;7.78;;;1.63;;
42146;SDS011;27815;43.410;11.852;2022-07-15T18:12:48;3.83;;;1.30;;
42146;SDS011;27815;43.410;11.852;2022-07-15T18:16:51;3.53;;;1.73;;
42146;SDS011;27815;43.410;11.852;2022-07-15T18:20:54;6.47;;;1.55;;
42146;SDS011;27815;43.410;11.852;2022-07-15T18:24:57;5.10;;;1.42;;
42146;SDS011;27815;43.410;11.852;2022-07-15T18:29:00;2.50;;;1.42;;
42146;SDS011;27815;43.410;11.852;2022-07-15T18:33:03;2.60;;;1.33;;
42146;SDS011;27815;43.410;11.852;2022-07-15T18:37:06;5.30;;;1.73;;
42146;SDS011;27815;43.410;11.852;2022-07-15T18:41:09;4.53;;;2.03;;
42146;SDS011;27815;43.410;11.852;2022-07-15T18:45:13;4.07;;;1.48;;
42146;SDS011;27815;43.410;11.852;2022-07-15T18:49:16;4.15;;;1.40;;
42146;SDS011;27815;43.410;11.852;2022-07-15T18:53:19;3.30;;;1.50;;
42146;SDS011;27815;43.410;11.852;2022-07-15T18:57:23;3.35;;;1.60;;
42146;SDS011;27815;43.410;11.852;2022-07-15T19:01:26;3.53;;;1.80;;
42146;SDS011;27815;43.410;11.852;2022-07-15T19:05:29;4.00;;;1.50;;
42146;SDS011;27815;43.410;11.852;2022-07-15T19:09:33;2.47;;;1.27;;
42146;SDS011;27815;43.410;11.852;2022-07-15T19:13:36;2.53;;;1.15;;
42146;SDS011;27815;43.410;11.852;2022-07-15T19:17:39;3.72;;;1.45;;
42146;SDS011;27815;43.410;11.852;2022-07-15T19:21:42;6.55;;;1.30;;
42146;SDS011;27815;43.410;11.852;2022-07-15T19:25:45;4.35;;;1.40;;
42146;SDS011;27815;43.410;11.852;2022-07-15T19:29:48;4.38;;;1.50;;
42146;SDS011;27815;43.410;11.852;2022-07-15T19:33:51;2.90;;;1.65;;
42146;SDS011;27815;43.410;11.852;2022-07-15T19:38:02;2.60;;;1.40;;
42146;SDS011;27815;43.410;11.852;2022-07-15T19:42:05;3.47;;;1.60;;
42146;SDS011;27815;43.410;11.852;2022-07-15T19:46:08;3.33;;;1.58;;
42146;SDS011;27815;43.410;11.852;2022-07-15T19:50:11;3.22;;;1.48;;
42146;SDS011;27815;43.410;11.852;2022-07-15T19:54:14;2.67;;;1.60;;
42146;SDS011;27815;43.410;11.852;2022-07-15T19:58:17;6.32;;;1.90;;
42146;SDS011;27815;43.410;11.852;2022-07-15T20:02:20;4.07;;;1.70;;
42146;SDS011;27815;43.410;11.852;2022-07-15T20:06:24;4.15;;;1.30;;
42146;SDS011;27815;43.410;11.852;2022-07-15T20:10:27;7.13;;;1.25;;
42146;SDS011;27815;43.410;11.852;2022-07-15T20:14:30;2.83;;;1.42;;
42146;SDS011;27815;43.410;11.852;2022-07-15T20:18:34;3.28;;;1.15;;
42146;SDS011;27815;43.410;11.852;2022-07-15T20:22:37;5.50;;;1.75;;
42146;SDS011;27815;43.410;11.852;2022-07-15T20:30:46;3.50;;;1.50;;
42146;SDS011;27815;43.410;11.852;2022-07-15T20:34:49;4.97;;;1.40;;
42146;SDS011;27815;43.410;11.852;2022-07-15T20:38:52;2.75;;;1.38;;
42146;SDS011;27815;43.410;11.852;2022-07-15T20:42:55;2.50;;;1.20;;
42146;SDS011;27815;43.410;11.852;2022-07-15T20:46:58;3.10;;;1.40;;
42146;SDS011;27815;43.410;11.852;2022-07-15T20:51:02;2.38;;;1.20;;
42146;SDS011;27815;43.410;11.852;2022-07-15T20:55:05;4.47;;;1.58;;
42146;SDS011;27815;43.410;11.852;2022-07-15T20:59:10;3.17;;;1.33;;
42146;SDS011;27815;43.410;11.852;2022-07-15T21:03:13;2.63;;;1.20;;
42146;SDS011;27815;43.410;11.852;2022-07-15T21:07:17;2.58;;;1.55;;
42146;SDS011;27815;43.410;11.852;2022-07-15T21:11:20;3.15;;;1.38;;
42146;SDS011;27815;43.410;11.852;2022-07-15T21:15:23;3.58;;;1.23;;
42146;SDS011;27815;43.410;11.852;2022-07-15T21:19:26;3.03;;;1.45;;
42146;SDS011;27815;43.410;11.852;2022-07-15T21:23:29;4.07;;;1.60;;
42146;SDS011;27815;43.410;11.852;2022-07-15T21:27:32;3.10;;;1.45;;
42146;SDS011;27815;43.410;11.852;2022-07-15T21:31:35;3.22;;;1.50;;
42146;SDS011;27815;43.410;11.852;2022-07-15T21:35:38;6.20;;;1.50;;
42146;SDS011;27815;43.410;11.852;2022-07-15T21:39:41;3.50;;;1.63;;
42146;SDS011;27815;43.410;11.852;2022-07-15T21:43:43;3.80;;;1.67;;
42146;SDS011;27815;43.410;11.852;2022-07-15T21:47:46;2.55;;;1.50;;
42146;SDS011;27815;43.410;11.852;2022-07-15T21:51:49;3.70;;;1.45;;
42146;SDS011;27815;43.410;11.852;2022-07-15T21:55:52;1.77;;;1.23;;
42146;SDS011;27815;43.410;11.852;2022-07-15T21:59:55;4.93;;;1.67;;
42146;SDS011;27815;43.410;11.852;2022-07-15T22:03:58;3.10;;;1.50;;
42146;SDS011;27815;43.410;11.852;2022-07-15T22:08:01;3.05;;;1.70;;
42146;SDS011;27815;43.410;11.852;2022-07-15T22:12:04;4.32;;;1.58;;
42146;SDS011;27815;43.410;11.852;2022-07-15T22:16:08;3.63;;;1.40;;
42146;SDS011;27815;43.410;11.852;2022-07-15T22:20:11;3.60;;;1.67;;
42146;SDS011;27815;43.410;11.852;2022-07-15T22:24:13;3.72;;;1.42;;
42146;SDS011;27815;43.410;11.852;2022-07-15T22:28:28;2.42;;;1.55;;
42146;SDS011;27815;43.410;11.852;2022-07-15T22:32:32;2.40;;;1.60;;
42146;SDS011;27815;43.410;11.852;2022-07-15T22:36:35;3.17;;;1.65;;
42146;SDS011;27815;43.410;11.852;2022-07-15T22:40:38;3.97;;;1.88;;
42146;SDS011;27815;43.410;11.852;2022-07-15T22:44:41;2.88;;;1.50;;
42146;SDS011;27815;43.410;11.852;2022-07-15T22:48:45;4.38;;;1.67;;
42146;SDS011;27815;43.410;11.852;2022-07-15T22:52:50;3.60;;;1.48;;
42146;SDS011;27815;43.410;11.852;2022-07-15T22:56:54;4.70;;;1.80;;
42146;SDS011;27815;43.410;11.852;2022-07-15T23:00:57;4.07;;;1.95;;
42146;SDS011;27815;43.410;11.852;2022-07-15T23:04:59;3.75;;;2.08;;
42146;SDS011;27815;43.410;11.852;2022-07-15T23:09:04;3.53;;;1.58;;
42146;SDS011;27815;43.410;11.852;2022-07-15T23:13:07;3.75;;;2.00;;
42146;SDS011;27815;43.410;11.852;2022-07-15T23:17:10;4.13;;;1.88;;
42146;SDS011;27815;43.410;11.852;2022-07-15T23:21:13;2.90;;;1.77;;
42146;SDS011;27815;43.410;11.852;2022-07-15T23:25:16;2.67;;;1.70;;
42146;SDS011;27815;43.410;11.852;2022-07-15T23:29:19;3.05;;;2.05;;
42146;SDS011;27815;43.410;11.852;2022-07-15T23:33:22;4.20;;;1.65;;
42146;SDS011;27815;43.410;11.852;2022-07-15T23:37:25;3.85;;;1.67;;
42146;SDS011;27815;43.410;11.852;2022-07-15T23:41:27;3.50;;;1.90;;
42146;SDS011;27815;43.410;11.852;2022-07-15T23:45:30;2.42;;;1.50;;
42146;SDS011;27815;43.410;11.852;2022-07-15T23:49:33;3.42;;;1.70;;
42146;SDS011;27815;43.410;11.852;2022-07-15T23:53:36;4.13;;;1.80;;
42146;SDS011;27815;43.410;11.852;2022-07-15T23:57:45;6.70;;;1.98;;
